sensor_id;sensor_type;location;lat;lon;timestamp;P1;durP1;ratioP1;P2;durP2;ratioP2
32826;SDS011;51059;42.058;27.986;2023-08-01T00:01:12;9.00;;;7.70;;
32826;SDS011;51059;42.058;27.986;2023-08-01T00:03:40;8.80;;;8.00;;
32826;SDS011;51059;42.058;27.986;2023-08-01T00:06:06;9.48;;;8.05;;
32826;SDS011;51059;42.058;27.986;2023-08-01T00:08:32;8.60;;;7.90;;
32826;SDS011;51059;42.058;27.986;2023-08-01T00:11:00;10.63;;;8.20;;
32826;SDS011;51059;42.058;27.986;2023-08-01T00:13:26;9.18;;;8.27;;
32826;SDS011;51059;42.058;27.986;2023-08-01T00:15:52;9.98;;;8.93;;
32826;SDS011;51059;42.058;27.986;2023-08-01T00:18:18;10.35;;;9.45;;
32826;SDS011;51059;42.058;27.986;2023-08-01T00:20:43;9.30;;;8.50;;
32826;SDS011;51059;42.058;27.986;2023-08-01T00:23:10;10.97;;;8.00;;
32826;SDS011;51059;42.058;27.986;2023-08-01T00:25:36;8.80;;;8.00;;
32826;SDS011;51059;42.058;27.986;2023-08-01T00:28:02;9.07;;;8.27;;
32826;SDS011;51059;42.058;27.986;2023-08-01T00:30:28;8.27;;;7.57;;
32826;SDS011;51059;42.058;27.986;2023-08-01T00:32:54;7.00;;;6.37;;
32826;SDS011;51059;42.058;27.986;2023-08-01T00:35:20;8.65;;;7.85;;
32826;SDS011;51059;42.058;27.986;2023-08-01T00:37:46;9.23;;;7.78;;
32826;SDS011;51059;42.058;27.986;2023-08-01T00:40:12;8.23;;;7.30;;
32826;SDS011;51059;42.058;27.986;2023-08-01T00:42:38;7.90;;;6.85;;
32826;SDS011;51059;42.058;27.986;2023-08-01T00:45:04;7.18;;;6.57;;
32826;SDS011;51059;42.058;27.986;2023-08-01T00:47:31;7.32;;;6.60;;
32826;SDS011;51059;42.058;27.986;2023-08-01T00:49:57;7.45;;;6.75;;
32826;SDS011;51059;42.058;27.986;2023-08-01T00:52:22;7.50;;;6.80;;
32826;SDS011;51059;42.058;27.986;2023-08-01T00:54:48;7.13;;;6.53;;
32826;SDS011;51059;42.058;27.986;2023-08-01T00:59:49;7.57;;;6.88;;
32826;SDS011;51059;42.058;27.986;2023-08-01T01:02:16;7.13;;;6.63;;
32826;SDS011;51059;42.058;27.986;2023-08-01T01:04:41;7.77;;;7.17;;
32826;SDS011;51059;42.058;27.986;2023-08-01T01:07:07;7.47;;;6.78;;
32826;SDS011;51059;42.058;27.986;2023-08-01T01:09:34;7.10;;;6.50;;
32826;SDS011;51059;42.058;27.986;2023-08-01T01:12:00;7.57;;;6.80;;
32826;SDS011;51059;42.058;27.986;2023-08-01T01:14:26;7.57;;;6.80;;
32826;SDS011;51059;42.058;27.986;2023-08-01T01:16:53;7.30;;;6.60;;
32826;SDS011;51059;42.058;27.986;2023-08-01T01:19:18;7.10;;;6.50;;
32826;SDS011;51059;42.058;27.986;2023-08-01T01:21:45;7.23;;;6.63;;
32826;SDS011;51059;42.058;27.986;2023-08-01T01:24:12;7.43;;;6.80;;
32826;SDS011;51059;42.058;27.986;2023-08-01T01:26:40;7.30;;;6.60;;
32826;SDS011;51059;42.058;27.986;2023-08-01T01:29:07;7.63;;;6.60;;
32826;SDS011;51059;42.058;27.986;2023-08-01T01:31:35;7.07;;;6.40;;
32826;SDS011;51059;42.058;27.986;2023-08-01T01:34:01;7.40;;;6.70;;
32826;SDS011;51059;42.058;27.986;2023-08-01T01:36:29;7.50;;;6.80;;
32826;SDS011;51059;42.058;27.986;2023-08-01T01:38:55;7.22;;;6.57;;
32826;SDS011;51059;42.058;27.986;2023-08-01T01:41:20;7.15;;;6.55;;
32826;SDS011;51059;42.058;27.986;2023-08-01T01:43:48;8.88;;;6.60;;
32826;SDS011;51059;42.058;27.986;2023-08-01T01:46:14;7.43;;;6.72;;
32826;SDS011;51059;42.058;27.986;2023-08-01T01:48:40;7.20;;;6.50;;
32826;SDS011;51059;42.058;27.986;2023-08-01T01:51:08;7.50;;;6.80;;
32826;SDS011;51059;42.058;27.986;2023-08-01T01:53:34;7.47;;;6.83;;
32826;SDS011;51059;42.058;27.986;2023-08-01T01:56:00;7.70;;;6.53;;
32826;SDS011;51059;42.058;27.986;2023-08-01T01:58:26;10.27;;;6.80;;
32826;SDS011;51059;42.058;27.986;2023-08-01T02:00:52;7.77;;;7.03;;
32826;SDS011;51059;42.058;27.986;2023-08-01T02:03:18;7.97;;;6.67;;
32826;SDS011;51059;42.058;27.986;2023-08-01T02:05:44;7.50;;;6.90;;
32826;SDS011;51059;42.058;27.986;2023-08-01T02:08:10;7.47;;;6.77;;
32826;SDS011;51059;42.058;27.986;2023-08-01T02:10:38;7.80;;;6.83;;
32826;SDS011;51059;42.058;27.986;2023-08-01T02:13:04;7.30;;;6.70;;
32826;SDS011;51059;42.058;27.986;2023-08-01T02:15:30;7.93;;;6.83;;
32826;SDS011;51059;42.058;27.986;2023-08-01T02:17:56;8.70;;;7.70;;
32826;SDS011;51059;42.058;27.986;2023-08-01T02:20:22;7.40;;;6.80;;
32826;SDS011;51059;42.058;27.986;2023-08-01T02:22:48;7.60;;;7.00;;
32826;SDS011;51059;42.058;27.986;2023-08-01T02:25:14;9.43;;;6.70;;
32826;SDS011;51059;42.058;27.986;2023-08-01T02:27:40;7.23;;;6.63;;
32826;SDS011;51059;42.058;27.986;2023-08-01T02:30:07;7.37;;;6.63;;
32826;SDS011;51059;42.058;27.986;2023-08-01T02:32:33;7.35;;;6.72;;
32826;SDS011;51059;42.058;27.986;2023-08-01T02:34:59;7.83;;;7.07;;
32826;SDS011;51059;42.058;27.986;2023-08-01T02:37:25;7.00;;;6.40;;
32826;SDS011;51059;42.058;27.986;2023-08-01T02:39:51;7.37;;;6.73;;
32826;SDS011;51059;42.058;27.986;2023-08-01T02:42:17;7.40;;;6.80;;
32826;SDS011;51059;42.058;27.986;2023-08-01T02:44:43;7.30;;;6.60;;
32826;SDS011;51059;42.058;27.986;2023-08-01T02:47:09;7.63;;;6.97;;
32826;SDS011;51059;42.058;27.986;2023-08-01T02:49:35;7.50;;;6.80;;
32826;SDS011;51059;42.058;27.986;2023-08-01T02:52:01;7.40;;;6.70;;
32826;SDS011;51059;42.058;27.986;2023-08-01T02:54:28;7.80;;;7.10;;
32826;SDS011;51059;42.058;27.986;2023-08-01T02:56:54;7.53;;;6.97;;
32826;SDS011;51059;42.058;27.986;2023-08-01T02:59:20;7.47;;;6.80;;
32826;SDS011;51059;42.058;27.986;2023-08-01T03:01:46;7.37;;;6.67;;
32826;SDS011;51059;42.058;27.986;2023-08-01T03:04:11;7.20;;;6.60;;
32826;SDS011;51059;42.058;27.986;2023-08-01T03:06:37;7.33;;;6.70;;
32826;SDS011;51059;42.058;27.986;2023-08-01T03:09:03;7.90;;;7.07;;
32826;SDS011;51059;42.058;27.986;2023-08-01T03:11:36;8.00;;;7.30;;
32826;SDS011;51059;42.058;27.986;2023-08-01T03:14:02;8.30;;;7.60;;
32826;SDS011;51059;42.058;27.986;2023-08-01T03:16:30;7.88;;;7.10;;
32826;SDS011;51059;42.058;27.986;2023-08-01T03:19:02;8.07;;;7.38;;
32826;SDS011;51059;42.058;27.986;2023-08-01T03:21:33;8.23;;;7.47;;
32826;SDS011;51059;42.058;27.986;2023-08-01T03:23:59;8.53;;;7.73;;
32826;SDS011;51059;42.058;27.986;2023-08-01T03:26:26;8.52;;;7.55;;
32826;SDS011;51059;42.058;27.986;2023-08-01T03:28:55;8.97;;;8.07;;
32826;SDS011;51059;42.058;27.986;2023-08-01T03:31:22;9.13;;;8.23;;
32826;SDS011;51059;42.058;27.986;2023-08-01T03:33:48;7.97;;;7.28;;
32826;SDS011;51059;42.058;27.986;2023-08-01T03:36:14;8.30;;;7.37;;
32826;SDS011;51059;42.058;27.986;2023-08-01T03:38:40;7.60;;;7.00;;
32826;SDS011;51059;42.058;27.986;2023-08-01T03:41:06;7.80;;;7.10;;
32826;SDS011;51059;42.058;27.986;2023-08-01T03:43:32;7.80;;;7.10;;
32826;SDS011;51059;42.058;27.986;2023-08-01T03:45:59;7.67;;;6.97;;
32826;SDS011;51059;42.058;27.986;2023-08-01T03:48:26;8.30;;;7.60;;
32826;SDS011;51059;42.058;27.986;2023-08-01T03:50:52;7.82;;;7.05;;
32826;SDS011;51059;42.058;27.986;2023-08-01T03:53:18;7.53;;;6.83;;
32826;SDS011;51059;42.058;27.986;2023-08-01T03:55:44;7.70;;;7.00;;
32826;SDS011;51059;42.058;27.986;2023-08-01T03:58:10;7.57;;;6.70;;
32826;SDS011;51059;42.058;27.986;2023-08-01T04:00:36;7.13;;;6.43;;
32826;SDS011;51059;42.058;27.986;2023-08-01T04:03:02;7.55;;;6.45;;
32826;SDS011;51059;42.058;27.986;2023-08-01T04:05:29;8.48;;;7.68;;
32826;SDS011;51059;42.058;27.986;2023-08-01T04:07:56;9.25;;;8.38;;
32826;SDS011;51059;42.058;27.986;2023-08-01T04:10:22;6.03;;;5.53;;
32826;SDS011;51059;42.058;27.986;2023-08-01T04:12:49;6.30;;;5.70;;
32826;SDS011;51059;42.058;27.986;2023-08-01T04:15:15;7.53;;;6.68;;
32826;SDS011;51059;42.058;27.986;2023-08-01T04:17:42;6.35;;;5.18;;
32826;SDS011;51059;42.058;27.986;2023-08-01T04:20:08;7.53;;;6.93;;
32826;SDS011;51059;42.058;27.986;2023-08-01T04:22:34;7.20;;;6.60;;
32826;SDS011;51059;42.058;27.986;2023-08-01T04:25:01;6.65;;;6.07;;
32826;SDS011;51059;42.058;27.986;2023-08-01T04:27:27;18.70;;;14.90;;
32826;SDS011;51059;42.058;27.986;2023-08-01T04:29:55;9.52;;;8.50;;
32826;SDS011;51059;42.058;27.986;2023-08-01T04:32:21;5.65;;;5.13;;
32826;SDS011;51059;42.058;27.986;2023-08-01T04:34:49;7.38;;;6.20;;
32826;SDS011;51059;42.058;27.986;2023-08-01T04:37:15;6.35;;;5.75;;
32826;SDS011;51059;42.058;27.986;2023-08-01T04:39:40;11.02;;;10.02;;
32826;SDS011;51059;42.058;27.986;2023-08-01T04:42:06;5.03;;;4.43;;
32826;SDS011;51059;42.058;27.986;2023-08-01T04:44:32;7.07;;;6.47;;
32826;SDS011;51059;42.058;27.986;2023-08-01T04:46:58;8.15;;;5.55;;
32826;SDS011;51059;42.058;27.986;2023-08-01T04:49:24;8.23;;;5.97;;
32826;SDS011;51059;42.058;27.986;2023-08-01T04:51:50;17.88;;;16.15;;
32826;SDS011;51059;42.058;27.986;2023-08-01T04:54:16;7.88;;;7.07;;
32826;SDS011;51059;42.058;27.986;2023-08-01T04:56:42;5.95;;;5.20;;
32826;SDS011;51059;42.058;27.986;2023-08-01T04:59:08;6.90;;;5.28;;
32826;SDS011;51059;42.058;27.986;2023-08-01T05:01:34;10.57;;;9.68;;
32826;SDS011;51059;42.058;27.986;2023-08-01T05:04:00;8.38;;;7.60;;
32826;SDS011;51059;42.058;27.986;2023-08-01T05:06:27;5.65;;;5.13;;
32826;SDS011;51059;42.058;27.986;2023-08-01T05:08:55;5.70;;;4.60;;
32826;SDS011;51059;42.058;27.986;2023-08-01T05:11:21;4.10;;;3.80;;
32826;SDS011;51059;42.058;27.986;2023-08-01T05:13:47;4.32;;;3.92;;
32826;SDS011;51059;42.058;27.986;2023-08-01T05:16:12;6.20;;;4.05;;
32826;SDS011;51059;42.058;27.986;2023-08-01T05:18:38;5.68;;;3.90;;
32826;SDS011;51059;42.058;27.986;2023-08-01T05:21:04;7.32;;;6.57;;
32826;SDS011;51059;42.058;27.986;2023-08-01T05:23:30;6.65;;;5.30;;
32826;SDS011;51059;42.058;27.986;2023-08-01T05:26:02;4.82;;;4.30;;
32826;SDS011;51059;42.058;27.986;2023-08-01T05:28:28;5.13;;;3.95;;
32826;SDS011;51059;42.058;27.986;2023-08-01T05:30:54;8.85;;;4.50;;
32826;SDS011;51059;42.058;27.986;2023-08-01T05:33:20;11.95;;;6.93;;
32826;SDS011;51059;42.058;27.986;2023-08-01T05:35:48;10.65;;;5.10;;
32826;SDS011;51059;42.058;27.986;2023-08-01T05:38:14;6.80;;;4.13;;
32826;SDS011;51059;42.058;27.986;2023-08-01T05:40:40;6.75;;;4.50;;
32826;SDS011;51059;42.058;27.986;2023-08-01T05:43:06;8.35;;;4.45;;
32826;SDS011;51059;42.058;27.986;2023-08-01T05:45:34;9.23;;;4.05;;
32826;SDS011;51059;42.058;27.986;2023-08-01T05:48:02;8.60;;;5.00;;
32826;SDS011;51059;42.058;27.986;2023-08-01T05:50:27;4.38;;;3.70;;
32826;SDS011;51059;42.058;27.986;2023-08-01T05:52:53;5.72;;;4.40;;
32826;SDS011;51059;42.058;27.986;2023-08-01T05:55:20;9.18;;;5.25;;
32826;SDS011;51059;42.058;27.986;2023-08-01T05:57:46;7.85;;;4.63;;
32826;SDS011;51059;42.058;27.986;2023-08-01T06:00:14;5.65;;;5.15;;
32826;SDS011;51059;42.058;27.986;2023-08-01T06:02:41;7.25;;;5.70;;
32826;SDS011;51059;42.058;27.986;2023-08-01T06:05:07;5.82;;;4.80;;
32826;SDS011;51059;42.058;27.986;2023-08-01T06:07:34;9.25;;;4.90;;
32826;SDS011;51059;42.058;27.986;2023-08-01T06:10:00;7.13;;;5.30;;
32826;SDS011;51059;42.058;27.986;2023-08-01T06:12:26;8.00;;;6.72;;
32826;SDS011;51059;42.058;27.986;2023-08-01T06:14:52;7.53;;;5.40;;
32826;SDS011;51059;42.058;27.986;2023-08-01T06:17:18;11.95;;;5.65;;
32826;SDS011;51059;42.058;27.986;2023-08-01T06:19:44;9.57;;;5.30;;
32826;SDS011;51059;42.058;27.986;2023-08-01T06:22:10;9.50;;;5.63;;
32826;SDS011;51059;42.058;27.986;2023-08-01T06:24:36;12.20;;;5.63;;
32826;SDS011;51059;42.058;27.986;2023-08-01T06:27:02;7.35;;;5.28;;
32826;SDS011;51059;42.058;27.986;2023-08-01T06:29:28;28.85;;;25.88;;
32826;SDS011;51059;42.058;27.986;2023-08-01T06:31:54;20.77;;;18.75;;
32826;SDS011;51059;42.058;27.986;2023-08-01T06:34:20;10.80;;;8.82;;
32826;SDS011;51059;42.058;27.986;2023-08-01T06:36:46;15.05;;;9.75;;
32826;SDS011;51059;42.058;27.986;2023-08-01T06:39:12;8.93;;;6.00;;
32826;SDS011;51059;42.058;27.986;2023-08-01T06:41:38;11.10;;;6.82;;
32826;SDS011;51059;42.058;27.986;2023-08-01T06:44:04;8.07;;;6.45;;
32826;SDS011;51059;42.058;27.986;2023-08-01T06:46:30;16.60;;;15.00;;
32826;SDS011;51059;42.058;27.986;2023-08-01T06:48:56;30.73;;;28.17;;
32826;SDS011;51059;42.058;27.986;2023-08-01T06:51:22;48.63;;;43.65;;
32826;SDS011;51059;42.058;27.986;2023-08-01T06:53:48;36.63;;;33.10;;
32826;SDS011;51059;42.058;27.986;2023-08-01T06:56:14;12.48;;;6.65;;
32826;SDS011;51059;42.058;27.986;2023-08-01T06:58:40;25.23;;;8.07;;
32826;SDS011;51059;42.058;27.986;2023-08-01T07:01:06;17.40;;;6.15;;
32826;SDS011;51059;42.058;27.986;2023-08-01T07:03:32;11.68;;;6.45;;
32826;SDS011;51059;42.058;27.986;2023-08-01T07:05:58;12.30;;;6.00;;
32826;SDS011;51059;42.058;27.986;2023-08-01T07:08:24;17.15;;;6.93;;
32826;SDS011;51059;42.058;27.986;2023-08-01T07:10:50;14.18;;;6.28;;
32826;SDS011;51059;42.058;27.986;2023-08-01T07:13:16;7.93;;;5.90;;
32826;SDS011;51059;42.058;27.986;2023-08-01T07:15:42;5.82;;;5.22;;
32826;SDS011;51059;42.058;27.986;2023-08-01T07:18:08;12.00;;;6.03;;
32826;SDS011;51059;42.058;27.986;2023-08-01T07:20:34;10.05;;;5.78;;
32826;SDS011;51059;42.058;27.986;2023-08-01T07:23:00;7.72;;;5.50;;
32826;SDS011;51059;42.058;27.986;2023-08-01T07:25:26;7.95;;;5.43;;
32826;SDS011;51059;42.058;27.986;2023-08-01T07:27:52;8.13;;;5.28;;
32826;SDS011;51059;42.058;27.986;2023-08-01T07:30:19;6.53;;;5.82;;
32826;SDS011;51059;42.058;27.986;2023-08-01T07:32:46;9.23;;;5.47;;
32826;SDS011;51059;42.058;27.986;2023-08-01T07:35:13;6.50;;;5.80;;
32826;SDS011;51059;42.058;27.986;2023-08-01T07:37:39;6.15;;;5.55;;
32826;SDS011;51059;42.058;27.986;2023-08-01T07:40:08;9.65;;;5.43;;
32826;SDS011;51059;42.058;27.986;2023-08-01T07:42:35;5.93;;;5.43;;
32826;SDS011;51059;42.058;27.986;2023-08-01T07:45:01;7.90;;;5.80;;
32826;SDS011;51059;42.058;27.986;2023-08-01T07:47:27;9.48;;;5.60;;
32826;SDS011;51059;42.058;27.986;2023-08-01T07:49:53;6.35;;;5.70;;
32826;SDS011;51059;42.058;27.986;2023-08-01T07:52:19;12.00;;;6.85;;
32826;SDS011;51059;42.058;27.986;2023-08-01T07:54:45;8.68;;;5.32;;
32826;SDS011;51059;42.058;27.986;2023-08-01T07:57:11;8.93;;;6.13;;
32826;SDS011;51059;42.058;27.986;2023-08-01T07:59:36;7.50;;;5.90;;
32826;SDS011;51059;42.058;27.986;2023-08-01T08:02:02;7.35;;;5.63;;
32826;SDS011;51059;42.058;27.986;2023-08-01T08:04:28;5.53;;;4.93;;
32826;SDS011;51059;42.058;27.986;2023-08-01T08:06:54;5.47;;;4.95;;
32826;SDS011;51059;42.058;27.986;2023-08-01T08:09:21;10.27;;;5.60;;
32826;SDS011;51059;42.058;27.986;2023-08-01T08:11:48;9.63;;;5.32;;
32826;SDS011;51059;42.058;27.986;2023-08-01T08:14:16;6.05;;;5.40;;
32826;SDS011;51059;42.058;27.986;2023-08-01T08:16:42;10.38;;;5.65;;
32826;SDS011;51059;42.058;27.986;2023-08-01T08:19:14;10.85;;;6.88;;
32826;SDS011;51059;42.058;27.986;2023-08-01T08:21:40;6.05;;;5.28;;
32826;SDS011;51059;42.058;27.986;2023-08-01T08:24:07;7.82;;;5.82;;
32826;SDS011;51059;42.058;27.986;2023-08-01T08:26:33;7.20;;;6.30;;
32826;SDS011;51059;42.058;27.986;2023-08-01T08:29:03;8.65;;;6.70;;
32826;SDS011;51059;42.058;27.986;2023-08-01T08:31:32;9.50;;;6.10;;
32826;SDS011;51059;42.058;27.986;2023-08-01T08:34:00;6.38;;;5.78;;
32826;SDS011;51059;42.058;27.986;2023-08-01T08:36:26;7.57;;;6.00;;
32826;SDS011;51059;42.058;27.986;2023-08-01T08:38:53;6.32;;;5.82;;
32826;SDS011;51059;42.058;27.986;2023-08-01T08:41:20;8.85;;;5.80;;
32826;SDS011;51059;42.058;27.986;2023-08-01T08:43:49;7.00;;;5.78;;
32826;SDS011;51059;42.058;27.986;2023-08-01T08:46:16;6.00;;;5.15;;
32826;SDS011;51059;42.058;27.986;2023-08-01T08:48:43;7.13;;;4.72;;
32826;SDS011;51059;42.058;27.986;2023-08-01T08:51:11;15.15;;;5.03;;
32826;SDS011;51059;42.058;27.986;2023-08-01T08:53:38;5.90;;;4.88;;
32826;SDS011;51059;42.058;27.986;2023-08-01T08:56:07;8.27;;;4.93;;
32826;SDS011;51059;42.058;27.986;2023-08-01T08:58:33;6.28;;;5.20;;
32826;SDS011;51059;42.058;27.986;2023-08-01T09:01:00;9.13;;;5.53;;
32826;SDS011;51059;42.058;27.986;2023-08-01T09:03:27;6.55;;;5.50;;
32826;SDS011;51059;42.058;27.986;2023-08-01T09:05:58;6.88;;;5.57;;
32826;SDS011;51059;42.058;27.986;2023-08-01T09:08:32;5.80;;;5.30;;
32826;SDS011;51059;42.058;27.986;2023-08-01T09:11:02;5.72;;;5.18;;
32826;SDS011;51059;42.058;27.986;2023-08-01T09:13:30;5.90;;;5.30;;
32826;SDS011;51059;42.058;27.986;2023-08-01T09:15:56;6.68;;;5.60;;
32826;SDS011;51059;42.058;27.986;2023-08-01T09:18:23;5.05;;;4.55;;
32826;SDS011;51059;42.058;27.986;2023-08-01T09:20:49;8.80;;;7.90;;
32826;SDS011;51059;42.058;27.986;2023-08-01T09:23:16;5.63;;;5.13;;
32826;SDS011;51059;42.058;27.986;2023-08-01T09:25:43;5.47;;;4.95;;
32826;SDS011;51059;42.058;27.986;2023-08-01T09:28:16;5.55;;;5.05;;
32826;SDS011;51059;42.058;27.986;2023-08-01T09:30:47;5.68;;;4.75;;
32826;SDS011;51059;42.058;27.986;2023-08-01T09:33:14;6.88;;;4.97;;
32826;SDS011;51059;42.058;27.986;2023-08-01T09:35:40;5.50;;;4.97;;
32826;SDS011;51059;42.058;27.986;2023-08-01T09:38:07;5.85;;;4.70;;
32826;SDS011;51059;42.058;27.986;2023-08-01T09:40:39;7.47;;;4.40;;
32826;SDS011;51059;42.058;27.986;2023-08-01T09:43:05;5.35;;;4.75;;
32826;SDS011;51059;42.058;27.986;2023-08-01T09:45:32;5.82;;;5.00;;
32826;SDS011;51059;42.058;27.986;2023-08-01T09:47:59;5.28;;;4.53;;
32826;SDS011;51059;42.058;27.986;2023-08-01T09:50:26;5.30;;;4.80;;
32826;SDS011;51059;42.058;27.986;2023-08-01T09:52:52;4.82;;;4.25;;
32826;SDS011;51059;42.058;27.986;2023-08-01T09:57:50;6.68;;;4.75;;
32826;SDS011;51059;42.058;27.986;2023-08-01T10:00:18;5.40;;;4.90;;
32826;SDS011;51059;42.058;27.986;2023-08-01T10:02:45;6.15;;;5.60;;
32826;SDS011;51059;42.058;27.986;2023-08-01T10:05:12;9.32;;;5.32;;
32826;SDS011;51059;42.058;27.986;2023-08-01T10:07:40;5.30;;;4.80;;
32826;SDS011;51059;42.058;27.986;2023-08-01T10:10:07;5.20;;;4.70;;
32826;SDS011;51059;42.058;27.986;2023-08-01T10:12:35;4.93;;;4.50;;
32826;SDS011;51059;42.058;27.986;2023-08-01T10:15:03;5.53;;;5.03;;
32826;SDS011;51059;42.058;27.986;2023-08-01T10:17:29;4.95;;;4.47;;
32826;SDS011;51059;42.058;27.986;2023-08-01T10:19:59;4.43;;;4.03;;
32826;SDS011;51059;42.058;27.986;2023-08-01T10:22:26;6.50;;;4.60;;
32826;SDS011;51059;42.058;27.986;2023-08-01T10:24:52;5.88;;;4.90;;
32826;SDS011;51059;42.058;27.986;2023-08-01T10:27:20;7.22;;;4.90;;
32826;SDS011;51059;42.058;27.986;2023-08-01T10:30:00;6.25;;;5.65;;
32826;SDS011;51059;42.058;27.986;2023-08-01T10:34:58;5.53;;;5.00;;
32826;SDS011;51059;42.058;27.986;2023-08-01T10:37:24;4.97;;;4.47;;
32826;SDS011;51059;42.058;27.986;2023-08-01T10:40:00;8.15;;;4.82;;
32826;SDS011;51059;42.058;27.986;2023-08-01T10:42:36;5.78;;;5.03;;
32826;SDS011;51059;42.058;27.986;2023-08-01T10:45:03;6.53;;;4.75;;
32826;SDS011;51059;42.058;27.986;2023-08-01T10:47:30;5.80;;;4.80;;
32826;SDS011;51059;42.058;27.986;2023-08-01T10:49:57;5.45;;;4.55;;
32826;SDS011;51059;42.058;27.986;2023-08-01T10:52:23;5.50;;;5.00;;
32826;SDS011;51059;42.058;27.986;2023-08-01T10:55:01;5.80;;;5.20;;
32826;SDS011;51059;42.058;27.986;2023-08-01T10:57:33;6.90;;;5.75;;
32826;SDS011;51059;42.058;27.986;2023-08-01T11:00:02;25.67;;;6.28;;
32826;SDS011;51059;42.058;27.986;2023-08-01T11:02:35;5.70;;;5.13;;
32826;SDS011;51059;42.058;27.986;2023-08-01T11:05:03;7.40;;;5.68;;
32826;SDS011;51059;42.058;27.986;2023-08-01T11:07:31;6.88;;;5.60;;
32826;SDS011;51059;42.058;27.986;2023-08-01T11:10:11;5.75;;;5.25;;
32826;SDS011;51059;42.058;27.986;2023-08-01T11:12:42;5.80;;;5.20;;
32826;SDS011;51059;42.058;27.986;2023-08-01T11:15:11;5.57;;;5.07;;
32826;SDS011;51059;42.058;27.986;2023-08-01T11:17:42;5.63;;;4.80;;
32826;SDS011;51059;42.058;27.986;2023-08-01T11:20:12;6.95;;;5.40;;
32826;SDS011;51059;42.058;27.986;2023-08-01T11:23:00;9.55;;;5.57;;
32826;SDS011;51059;42.058;27.986;2023-08-01T11:25:42;6.53;;;5.00;;
32826;SDS011;51059;42.058;27.986;2023-08-01T11:28:15;5.78;;;4.80;;
32826;SDS011;51059;42.058;27.986;2023-08-01T11:30:42;5.40;;;4.90;;
32826;SDS011;51059;42.058;27.986;2023-08-01T11:33:21;7.03;;;4.72;;
32826;SDS011;51059;42.058;27.986;2023-08-01T11:35:52;8.18;;;4.90;;
32826;SDS011;51059;42.058;27.986;2023-08-01T11:38:23;5.07;;;4.68;;
32826;SDS011;51059;42.058;27.986;2023-08-01T11:40:51;6.78;;;4.82;;
32826;SDS011;51059;42.058;27.986;2023-08-01T11:43:18;6.43;;;4.65;;
32826;SDS011;51059;42.058;27.986;2023-08-01T11:45:52;7.15;;;4.22;;
32826;SDS011;51059;42.058;27.986;2023-08-01T11:48:23;4.90;;;4.50;;
32826;SDS011;51059;42.058;27.986;2023-08-01T11:50:49;6.28;;;4.80;;
32826;SDS011;51059;42.058;27.986;2023-08-01T11:53:25;4.90;;;4.30;;
32826;SDS011;51059;42.058;27.986;2023-08-01T11:55:51;4.80;;;4.38;;
32826;SDS011;51059;42.058;27.986;2023-08-01T11:58:34;6.15;;;4.25;;
32826;SDS011;51059;42.058;27.986;2023-08-01T12:03:53;5.60;;;3.67;;
32826;SDS011;51059;42.058;27.986;2023-08-01T12:06:21;4.65;;;4.13;;
32826;SDS011;51059;42.058;27.986;2023-08-01T12:08:49;5.05;;;4.45;;
32826;SDS011;51059;42.058;27.986;2023-08-01T12:11:24;4.45;;;4.05;;
32826;SDS011;51059;42.058;27.986;2023-08-01T12:14:00;5.53;;;4.20;;
32826;SDS011;51059;42.058;27.986;2023-08-01T12:16:26;4.07;;;3.78;;
32826;SDS011;51059;42.058;27.986;2023-08-01T12:18:52;5.90;;;4.20;;
32826;SDS011;51059;42.058;27.986;2023-08-01T12:21:19;4.20;;;3.80;;
32826;SDS011;51059;42.058;27.986;2023-08-01T12:23:46;3.70;;;3.40;;
32826;SDS011;51059;42.058;27.986;2023-08-01T12:26:12;4.93;;;3.58;;
32826;SDS011;51059;42.058;27.986;2023-08-01T12:28:40;3.80;;;3.42;;
32826;SDS011;51059;42.058;27.986;2023-08-01T12:31:06;5.07;;;3.60;;
32826;SDS011;51059;42.058;27.986;2023-08-01T12:33:32;4.32;;;3.80;;
32826;SDS011;51059;42.058;27.986;2023-08-01T12:35:59;4.22;;;3.83;;
32826;SDS011;51059;42.058;27.986;2023-08-01T12:38:26;3.88;;;3.47;;
32826;SDS011;51059;42.058;27.986;2023-08-01T12:40:52;3.75;;;3.45;;
32826;SDS011;51059;42.058;27.986;2023-08-01T12:43:18;4.13;;;3.58;;
32826;SDS011;51059;42.058;27.986;2023-08-01T12:45:44;16.50;;;4.68;;
32826;SDS011;51059;42.058;27.986;2023-08-01T12:48:10;4.07;;;3.78;;
32826;SDS011;51059;42.058;27.986;2023-08-01T12:50:37;3.60;;;3.30;;
32826;SDS011;51059;42.058;27.986;2023-08-01T12:53:03;3.97;;;3.22;;
32826;SDS011;51059;42.058;27.986;2023-08-01T12:55:29;4.65;;;3.47;;
32826;SDS011;51059;42.058;27.986;2023-08-01T12:57:54;6.97;;;3.67;;
32826;SDS011;51059;42.058;27.986;2023-08-01T13:00:20;3.40;;;3.10;;
32826;SDS011;51059;42.058;27.986;2023-08-01T13:02:46;4.07;;;3.25;;
32826;SDS011;51059;42.058;27.986;2023-08-01T13:05:14;9.32;;;3.58;;
32826;SDS011;51059;42.058;27.986;2023-08-01T13:07:42;4.40;;;3.00;;
32826;SDS011;51059;42.058;27.986;2023-08-01T13:10:08;3.40;;;3.10;;
32826;SDS011;51059;42.058;27.986;2023-08-01T13:12:34;3.70;;;3.08;;
32826;SDS011;51059;42.058;27.986;2023-08-01T13:15:00;3.40;;;3.10;;
32826;SDS011;51059;42.058;27.986;2023-08-01T13:17:26;5.80;;;3.38;;
32826;SDS011;51059;42.058;27.986;2023-08-01T13:19:52;3.70;;;3.40;;
32826;SDS011;51059;42.058;27.986;2023-08-01T13:22:18;3.33;;;3.03;;
32826;SDS011;51059;42.058;27.986;2023-08-01T13:24:45;5.38;;;3.70;;
32826;SDS011;51059;42.058;27.986;2023-08-01T13:27:12;4.45;;;3.40;;
32826;SDS011;51059;42.058;27.986;2023-08-01T13:29:40;4.47;;;3.03;;
32826;SDS011;51059;42.058;27.986;2023-08-01T13:32:05;9.93;;;4.00;;
32826;SDS011;51059;42.058;27.986;2023-08-01T13:34:32;5.13;;;3.40;;
32826;SDS011;51059;42.058;27.986;2023-08-01T13:36:58;4.72;;;3.78;;
32826;SDS011;51059;42.058;27.986;2023-08-01T13:39:24;4.10;;;3.42;;
32826;SDS011;51059;42.058;27.986;2023-08-01T13:41:50;3.38;;;3.08;;
32826;SDS011;51059;42.058;27.986;2023-08-01T13:44:16;3.58;;;3.28;;
32826;SDS011;51059;42.058;27.986;2023-08-01T13:46:42;3.78;;;3.40;;
32826;SDS011;51059;42.058;27.986;2023-08-01T13:49:08;3.50;;;3.20;;
32826;SDS011;51059;42.058;27.986;2023-08-01T13:51:34;5.60;;;3.05;;
32826;SDS011;51059;42.058;27.986;2023-08-01T13:54:00;4.05;;;3.45;;
32826;SDS011;51059;42.058;27.986;2023-08-01T13:56:26;7.35;;;3.05;;
32826;SDS011;51059;42.058;27.986;2023-08-01T13:58:52;3.97;;;3.17;;
32826;SDS011;51059;42.058;27.986;2023-08-01T14:01:18;3.70;;;3.40;;
32826;SDS011;51059;42.058;27.986;2023-08-01T14:03:44;5.03;;;3.42;;
32826;SDS011;51059;42.058;27.986;2023-08-01T14:06:12;3.35;;;3.05;;
32826;SDS011;51059;42.058;27.986;2023-08-01T14:08:39;3.63;;;3.03;;
32826;SDS011;51059;42.058;27.986;2023-08-01T14:11:06;4.70;;;3.33;;
32826;SDS011;51059;42.058;27.986;2023-08-01T14:13:34;3.95;;;3.03;;
32826;SDS011;51059;42.058;27.986;2023-08-01T14:16:01;6.43;;;3.70;;
32826;SDS011;51059;42.058;27.986;2023-08-01T14:18:29;6.00;;;4.07;;
32826;SDS011;51059;42.058;27.986;2023-08-01T14:20:55;4.05;;;3.22;;
32826;SDS011;51059;42.058;27.986;2023-08-01T14:23:24;4.55;;;3.38;;
32826;SDS011;51059;42.058;27.986;2023-08-01T14:25:50;5.53;;;3.45;;
32826;SDS011;51059;42.058;27.986;2023-08-01T14:28:16;5.90;;;3.50;;
32826;SDS011;51059;42.058;27.986;2023-08-01T14:30:44;4.85;;;3.67;;
32826;SDS011;51059;42.058;27.986;2023-08-01T14:33:11;3.53;;;3.22;;
32826;SDS011;51059;42.058;27.986;2023-08-01T14:35:37;4.05;;;3.70;;
32826;SDS011;51059;42.058;27.986;2023-08-01T14:38:04;5.28;;;3.30;;
32826;SDS011;51059;42.058;27.986;2023-08-01T14:40:31;8.77;;;4.07;;
32826;SDS011;51059;42.058;27.986;2023-08-01T14:42:57;4.00;;;3.70;;